Time;durP1;ratioP1;P1;durP2;ratioP2;P2;SDS_P1;SDS_P2;PMS_P1;PMS_P2;Temp;Humidity;BMP_temperature;BMP_pressure;BME280_temperature;BME280_humidity;BME280_pressure;Samples;Min_cycle;Max_cycle;Signal;HPM_P1;HPM_P2
2022/06/18 00:00:24;;;;;;;3.42;1.80;;;23.40;58.30;;;;;;4430713;32;20098;-70
2022/06/18 00:02:51;;;;;;;2.72;2.10;;;23.40;58.30;;;;;;4430099;32;20164;-70
2022/06/18 00:05:20;;;;;;;2.50;1.60;;;23.40;58.30;;;;;;4430439;32;20090;-70
2022/06/18 00:07:50;;;;;;;2.97;1.75;;;23.40;58.30;;;;;;4430367;32;20213;-70
2022/06/18 00:10:24;;;;;;;2.42;1.77;;;23.30;58.20;;;;;;4430441;32;20146;-70
2022/06/18 00:15:39;;;;;;;2.80;1.77;;;23.40;58.30;;;;;;4430314;32;20232;-70
2022/06/18 00:18:11;;;;;;;3.03;1.70;;;23.30;58.20;;;;;;4430276;32;20059;-70
2022/06/18 00:20:39;;;;;;;3.53;1.90;;;23.30;58.20;;;;;;4430564;32;20451;-70
2022/06/18 00:23:15;;;;;;;5.60;2.15;;;23.30;58.20;;;;;;4430403;32;20102;-70
2022/06/18 00:25:45;;;;;;;4.30;1.88;;;23.40;58.30;;;;;;4430203;32;20090;-70
2022/06/18 00:28:28;;;;;;;1.60;1.50;;;23.30;58.20;;;;;;4430208;32;20090;-70
2022/06/18 00:30:55;;;;;;;3.42;1.75;;;23.30;58.20;;;;;;4416037;32;20101;-70
2022/06/18 00:33:23;;;;;;;4.43;1.90;;;23.30;58.20;;;;;;4429547;32;20066;-70
2022/06/18 00:35:51;;;;;;;3.78;1.73;;;23.30;58.20;;;;;;4429872;32;20475;-70
2022/06/18 00:38:25;;;;;;;1.80;1.50;;;23.30;58.30;;;;;;4416255;32;20066;-70
2022/06/18 00:40:52;;;;;;;;;;;23.30;58.20;;;;;;4431063;32;20164;-70
2022/06/18 00:43:27;;;;;;;2.58;1.40;;;23.30;58.20;;;;;;4429905;32;19970;-70
2022/06/18 00:46:00;;;;;;;3.13;1.88;;;23.30;58.30;;;;;;4416253;32;20170;-70
2022/06/18 00:48:39;;;;;;;2.72;1.70;;;23.30;58.30;;;;;;4430092;32;20484;-70
2022/06/18 00:51:18;;;;;;;2.50;1.85;;;23.30;58.20;;;;;;4429901;32;20144;-70
2022/06/18 00:53:53;;;;;;;2.53;1.50;;;23.30;58.20;;;;;;4429924;32;20471;-70
2022/06/18 00:56:27;;;;;;;2.92;2.03;;;23.30;58.20;;;;;;4429921;32;20090;-70
2022/06/18 00:59:25;;;;;;;2.03;1.70;;;23.30;58.30;;;;;;4429952;32;20098;-70
2022/06/18 01:01:54;;;;;;;2.45;1.75;;;23.30;58.20;;;;;;4404305;32;20177;-70
2022/06/18 01:04:26;;;;;;;3.17;1.80;;;23.30;58.30;;;;;;4429527;32;20145;-70
2022/06/18 01:07:33;;;;;;;3.60;2.03;;;23.30;58.30;;;;;;4429594;32;20500;-70
2022/06/18 01:10:04;;;;;;;3.45;1.50;;;23.30;58.30;;;;;;4427839;32;20484;-70
2022/06/18 01:12:31;;;;;;;2.30;1.50;;;23.30;58.30;;;;;;4429719;32;20164;-70
2022/06/18 01:15:06;;;;;;;1.95;1.55;;;23.30;58.30;;;;;;4429378;32;20126;-70
2022/06/18 01:17:33;;;;;;;3.63;1.80;;;23.30;58.20;;;;;;4429791;32;20180;-70
2022/06/18 01:20:04;;;;;;;2.13;1.42;;;23.30;58.30;;;;;;4429389;32;20491;-70
2022/06/18 01:23:14;;;;;;;2.40;1.65;;;23.30;58.30;;;;;;4429968;32;20168;-70
2022/06/18 01:25:40;;;;;;;2.95;1.80;;;23.30;58.20;;;;;;4429733;32;20070;-70
2022/06/18 01:28:09;;;;;;;3.25;1.70;;;23.30;58.30;;;;;;4429610;32;20271;-70
2022/06/18 01:30:39;;;;;;;3.05;1.70;;;23.20;58.30;;;;;;4429611;32;20160;-70
2022/06/18 01:33:07;;;;;;;1.55;1.45;;;23.20;58.30;;;;;;4429539;32;20094;-70
2022/06/18 01:35:40;;;;;;;2.10;1.75;;;23.20;58.30;;;;;;4429381;32;20121;-70
2022/06/18 01:38:07;;;;;;;2.58;1.50;;;23.20;58.30;;;;;;4429730;32;20496;-70
2022/06/18 01:40:44;;;;;;;3.20;1.50;;;23.30;58.30;;;;;;4429786;32;20062;-70
2022/06/18 01:43:14;;;;;;;2.00;1.40;;;23.20;58.30;;;;;;4429501;32;20169;-70
2022/06/18 01:45:41;;;;;;;1.67;1.45;;;23.20;58.30;;;;;;4432023;32;20094;-70
2022/06/18 01:48:24;;;;;;;2.00;1.50;;;23.20;58.30;;;;;;4432344;32;20208;-70
2022/06/18 01:50:53;;;;;;;2.05;1.65;;;23.20;58.30;;;;;;4432409;32;20172;-70
2022/06/18 01:53:24;;;;;;;2.40;1.50;;;23.20;58.30;;;;;;4432301;32;20208;-70
2022/06/18 01:55:58;;;;;;;2.63;1.50;;;23.20;58.40;;;;;;4432301;32;20485;-70
2022/06/18 01:58:33;;;;;;;2.50;1.40;;;23.20;58.40;;;;;;4432131;32;20078;-70
2022/06/18 02:01:05;;;;;;;1.60;1.50;;;23.20;58.40;;;;;;4432200;32;20098;-70
2022/06/18 02:03:32;;;;;;;2.17;1.52;;;23.20;58.40;;;;;;4432610;32;20169;-70
2022/06/18 02:06:00;;;;;;;3.38;1.65;;;23.20;58.40;;;;;;4418159;32;20169;-70
2022/06/18 02:08:27;;;;;;;2.63;1.35;;;23.20;58.30;;;;;;4432133;32;20185;-70
2022/06/18 02:11:03;;;;;;;2.78;1.67;;;23.20;58.30;;;;;;4432075;32;20070;-70
2022/06/18 02:13:35;;;;;;;3.70;1.70;;;23.20;58.40;;;;;;4431923;32;20067;-70
2022/06/18 02:16:06;;;;;;;2.92;1.77;;;23.20;58.40;;;;;;4432141;32;20066;-70
2022/06/18 02:18:34;;;;;;;1.92;1.30;;;23.20;58.40;;;;;;4432310;32;20129;-70
2022/06/18 02:21:05;;;;;;;2.85;1.80;;;23.20;58.40;;;;;;4431957;32;20094;-70
2022/06/18 02:23:31;;;;;;;1.80;1.42;;;23.20;58.40;;;;;;4432516;32;20094;-70
2022/06/18 02:25:58;;;;;;;1.83;1.40;;;23.20;58.40;;;;;;4418109;32;20126;-70
2022/06/18 02:28:30;;;;;;;1.88;1.52;;;23.20;58.40;;;;;;4431594;32;20090;-70
2022/06/18 02:30:59;;;;;;;3.13;1.70;;;23.20;58.40;;;;;;4431909;32;20097;-70
2022/06/18 02:33:36;;;;;;;2.15;1.48;;;23.10;58.30;;;;;;4431686;32;20161;-70
2022/06/18 02:36:13;;;;;;;3.17;1.60;;;23.20;58.40;;;;;;4431594;32;20074;-71
2022/06/18 02:38:40;;;;;;;2.80;1.50;;;23.20;58.40;;;;;;4431754;32;20164;-70
2022/06/18 02:41:08;;;;;;;2.50;1.65;;;23.10;58.40;;;;;;4431591;32;20086;-70
2022/06/18 02:43:34;;;;;;;3.50;1.70;;;23.10;58.40;;;;;;4417933;32;20070;-70
2022/06/18 02:46:02;;;;;;;3.05;1.77;;;23.10;58.30;;;;;;4431535;32;20185;-70
2022/06/18 02:48:31;;;;;;;3.63;1.80;;;23.10;58.30;;;;;;4431558;32;20172;-70
2022/06/18 02:50:59;;;;;;;1.63;1.50;;;23.10;58.40;;;;;;4431482;32;20598;-70
2022/06/18 02:53:28;;;;;;;1.90;1.50;;;23.10;58.40;;;;;;4417613;32;20272;-70
2022/06/18 02:55:58;;;;;;;2.15;1.35;;;23.10;58.40;;;;;;4431356;32;20180;-70
2022/06/18 02:58:35;;;;;;;2.10;1.30;;;23.10;58.40;;;;;;4431495;32;20140;-70
2022/06/18 03:01:06;;;;;;;2.92;1.65;;;23.20;58.50;;;;;;4431442;32;20093;-70
2022/06/18 03:03:36;;;;;;;1.65;1.35;;;23.10;58.40;;;;;;4417685;32;20074;-70
2022/06/18 03:06:03;;;;;;;1.70;1.50;;;23.10;58.40;;;;;;4431447;32;20059;-71
2022/06/18 03:08:31;;;;;;;1.75;1.58;;;23.10;58.40;;;;;;4431033;32;20496;-70
2022/06/18 03:13:45;;;;;;;2.40;1.55;;;23.10;58.50;;;;;;4431339;32;20090;-70
2022/06/18 03:16:15;;;;;;;3.35;1.65;;;23.10;58.50;;;;;;4431199;32;20219;-69
2022/06/18 03:18:43;;;;;;;3.45;1.45;;;23.10;58.50;;;;;;4417137;32;20098;-70
2022/06/18 03:21:19;;;;;;;1.88;1.40;;;23.10;58.50;;;;;;4417348;32;20098;-70
2022/06/18 03:23:46;;;;;;;3.65;1.70;;;23.10;58.50;;;;;;4430965;32;20094;-70
2022/06/18 03:26:14;;;;;;;3.22;1.42;;;23.10;58.60;;;;;;4431091;32;20168;-70
2022/06/18 03:28:40;;;;;;;3.30;1.55;;;23.10;58.60;;;;;;4430967;32;20079;-70
2022/06/18 03:31:07;;;;;;;3.35;1.80;;;23.10;58.70;;;;;;4430890;32;20169;-69
2022/06/18 03:33:33;;;;;;;3.97;1.70;;;23.10;58.80;;;;;;4430750;32;20098;-70
2022/06/18 03:36:02;;;;;;;4.05;1.80;;;23.10;59.90;;;;;;4430690;32;20094;-70
2022/06/18 03:38:29;;;;;;;3.03;1.70;;;23.10;58.90;;;;;;4430766;32;20225;-71
2022/06/18 03:40:56;;;;;;;3.53;1.48;;;23.10;59.10;;;;;;4430762;32;20173;-70
2022/06/18 03:43:25;;;;;;;2.22;1.40;;;23.10;59.00;;;;;;4430762;32;20394;-70
2022/06/18 03:45:59;;;;;;;3.58;1.50;;;23.10;58.90;;;;;;4430700;32;20098;-70
2022/06/18 03:48:28;;;;;;;2.25;1.70;;;23.10;59.80;;;;;;4416972;32;20161;-70
2022/06/18 03:50:55;;;;;;;2.30;1.63;;;23.10;58.90;;;;;;4430080;32;20212;-70
2022/06/18 03:53:22;;;;;;;2.35;1.50;;;23.10;59.00;;;;;;4430283;32;20109;-70
2022/06/18 03:55:50;;;;;;;2.35;1.60;;;23.10;59.00;;;;;;4430296;32;20126;-70
2022/06/18 03:58:17;;;;;;;2.33;1.40;;;23.10;59.00;;;;;;4430325;32;20413;-70
2022/06/18 04:00:44;;;;;;;2.00;1.50;;;23.10;59.00;;;;;;4430451;32;20168;-71
2022/06/18 04:03:11;;;;;;;3.13;1.70;;;23.10;58.90;;;;;;4430487;32;20074;-70
2022/06/18 04:05:40;;;;;;;2.17;1.55;;;23.10;59.00;;;;;;4430691;32;20165;-70
2022/06/18 04:08:09;;;;;;;2.03;1.52;;;23.10;59.10;;;;;;4430017;32;20098;-70
2022/06/18 04:10:35;;;;;;;3.72;1.95;;;23.10;59.00;;;;;;4430089;32;20181;-70
2022/06/18 04:13:02;;;;;;;1.50;1.17;;;23.00;59.00;;;;;;4430090;32;20094;-70
2022/06/18 04:15:28;;;;;;;5.10;1.55;;;23.10;59.00;;;;;;4430222;32;20244;-70
2022/06/18 04:17:55;;;;;;;2.22;1.45;;;23.00;58.90;;;;;;4430064;32;20096;-70
2022/06/18 04:20:25;;;;;;;2.55;1.98;;;23.00;58.90;;;;;;4430248;32;20181;-70
2022/06/18 04:22:52;;;;;;;3.10;1.50;;;23.00;58.90;;;;;;4429952;32;20090;-70
2022/06/18 04:25:18;;;;;;;2.15;1.70;;;23.00;58.90;;;;;;4429996;32;20189;-70
2022/06/18 04:27:44;;;;;;;4.40;1.65;;;23.00;59.00;;;;;;4429899;32;20622;-70
2022/06/18 04:30:11;;;;;;;3.22;1.80;;;23.00;59.00;;;;;;4430391;32;20105;-70
2022/06/18 04:32:37;;;;;;;2.35;1.55;;;23.00;58.90;;;;;;4429690;32;20093;-70
2022/06/18 04:35:05;;;;;;;2.40;1.60;;;23.00;58.90;;;;;;4415605;32;20141;-71
2022/06/18 04:37:31;;;;;;;2.08;1.50;;;23.00;58.90;;;;;;4415726;32;20097;-69
2022/06/18 04:39:57;;;;;;;3.28;1.65;;;23.00;59.00;;;;;;4429806;32;20082;-70
2022/06/18 04:42:25;;;;;;;2.78;1.63;;;23.10;59.00;;;;;;4429804;32;20166;-70
2022/06/18 04:44:51;;;;;;;2.67;1.50;;;23.00;58.90;;;;;;4429618;32;20078;-70
2022/06/18 04:47:17;;;;;;;1.83;1.40;;;23.00;58.90;;;;;;4429756;32;20093;-70
2022/06/18 04:49:43;;;;;;;2.33;1.50;;;23.00;58.90;;;;;;4429723;32;20093;-70
2022/06/18 04:52:09;;;;;;;2.47;1.60;;;23.00;59.00;;;;;;4429697;32;20472;-70
2022/06/18 04:54:35;;;;;;;2.58;1.63;;;23.00;58.90;;;;;;4429434;32;20176;-70
2022/06/18 04:57:01;;;;;;;2.15;1.40;;;23.00;59.00;;;;;;4429718;32;20220;-70
2022/06/18 04:59:27;;;;;;;3.38;1.73;;;23.00;59.00;;;;;;4429990;32;20093;-70
2022/06/18 05:02:13;;;;;;;2.25;1.30;;;23.00;59.00;;;;;;4429646;32;20480;-70
2022/06/18 05:04:39;;;;;;;2.40;1.55;;;23.10;59.10;;;;;;4429686;32;20227;-70
2022/06/18 05:07:05;;;;;;;2.00;1.50;;;23.00;59.10;;;;;;4429777;32;20295;-70
2022/06/18 05:09:30;;;;;;;1.95;1.50;;;23.00;59.00;;;;;;4429569;32;20471;-70
2022/06/18 05:11:56;;;;;;;3.25;1.60;;;23.00;59.00;;;;;;4429549;32;20170;-70
2022/06/18 05:14:22;;;;;;;4.47;1.70;;;23.00;59.10;;;;;;4429698;32;20124;-70
2022/06/18 05:16:48;;;;;;;1.75;1.52;;;23.00;59.10;;;;;;4429378;32;20520;-70
2022/06/18 05:19:25;;;;;;;2.75;1.50;;;23.00;59.00;;;;;;4430215;32;20070;-70
2022/06/18 05:21:52;;;;;;;2.42;1.50;;;23.00;59.00;;;;;;4432834;32;20183;-70
2022/06/18 05:24:19;;;;;;;2.85;1.30;;;23.00;59.00;;;;;;4432556;32;20473;-70
2022/06/18 05:26:49;;;;;;;2.25;1.50;;;23.00;59.00;;;;;;4418684;32;20086;-70
2022/06/18 05:29:16;;;;;;;2.10;1.52;;;23.00;59.10;;;;;;4432693;32;20220;-70
2022/06/18 05:31:42;;;;;;;2.25;1.50;;;23.10;59.20;;;;;;4432415;32;20082;-70
2022/06/18 05:34:08;;;;;;;5.85;1.50;;;23.00;59.10;;;;;;4432449;32;20126;-70
2022/06/18 05:36:34;;;;;;;2.10;1.60;;;23.10;59.20;;;;;;4418676;32;20479;-70
2022/06/18 05:39:00;;;;;;;1.65;1.48;;;23.10;59.20;;;;;;4433453;32;20074;-70
2022/06/18 05:41:27;;;;;;;3.25;1.55;;;23.10;59.10;;;;;;4434117;32;20525;-70
2022/06/18 05:43:53;;;;;;;3.75;1.58;;;23.10;59.20;;;;;;4420241;32;20173;-70
2022/06/18 05:46:19;;;;;;;2.72;1.35;;;23.10;59.10;;;;;;4434165;32;20215;-70
2022/06/18 05:48:45;;;;;;;2.55;1.60;;;23.10;59.10;;;;;;4433394;32;20128;-70
2022/06/18 05:51:11;;;;;;;1.83;1.30;;;23.10;59.10;;;;;;4433267;32;20062;-70
2022/06/18 05:53:36;;;;;;;3.05;1.48;;;23.10;59.10;;;;;;4418403;32;20086;-70
2022/06/18 05:56:02;;;;;;;2.22;1.50;;;23.10;59.00;;;;;;4432156;32;20411;-70
2022/06/18 05:58:29;;;;;;;1.48;1.38;;;23.10;59.00;;;;;;4432181;32;20161;-70
2022/06/18 06:00:56;;;;;;;3.28;1.48;;;23.10;59.00;;;;;;4418137;32;20197;-70
2022/06/18 06:03:22;;;;;;;1.60;1.30;;;23.20;59.00;;;;;;4432029;32;20079;-70
2022/06/18 06:05:48;;;;;;;2.33;1.50;;;23.20;59.00;;;;;;4431970;32;20220;-71
2022/06/18 06:08:15;;;;;;;1.55;1.38;;;23.20;59.00;;;;;;4431751;32;20593;-69
2022/06/18 06:13:26;;;;;;;2.47;1.40;;;23.20;58.90;;;;;;4432141;32;20088;-70
2022/06/18 06:15:55;;;;;;;2.60;1.75;;;23.20;59.00;;;;;;4431817;32;20136;-69
2022/06/18 06:18:22;;;;;;;2.15;1.20;;;23.30;58.90;;;;;;4431753;32;20097;-70
2022/06/18 06:20:51;;;;;;;2.75;1.48;;;23.30;58.90;;;;;;4431728;32;20078;-70
2022/06/18 06:23:17;;;;;;;2.80;1.50;;;23.30;58.90;;;;;;4431978;32;20074;-69
2022/06/18 06:25:46;;;;;;;2.35;1.58;;;23.30;58.90;;;;;;4431672;32;20090;-70
2022/06/18 06:28:15;;;;;;;4.10;1.50;;;23.30;58.90;;;;;;4431686;32;20192;-67
2022/06/18 06:30:41;;;;;;;3.63;1.80;;;23.30;59.00;;;;;;4430594;32;20208;-68
2022/06/18 06:33:08;;;;;;;7.18;2.30;;;23.30;59.10;;;;;;4431215;32;20087;-69
2022/06/18 06:35:34;;;;;;;5.25;2.30;;;23.40;59.20;;;;;;4431292;32;20075;-68
2022/06/18 06:38:02;;;;;;;6.55;2.80;;;23.40;59.30;;;;;;4431435;32;20090;-68
2022/06/18 06:40:28;;;;;;;7.35;2.55;;;23.40;59.40;;;;;;4431476;32;20495;-68
2022/06/18 06:42:57;;;;;;;6.30;2.50;;;23.50;59.60;;;;;;4431345;32;20078;-69
2022/06/18 06:45:30;;;;;;;10.35;3.08;;;23.50;59.50;;;;;;4417203;32;20070;-68
2022/06/18 06:47:56;;;;;;;5.72;2.88;;;23.50;59.60;;;;;;4417537;32;20500;-69
2022/06/18 06:50:23;;;;;;;8.07;2.90;;;23.50;59.60;;;;;;4431300;32;20082;-68
2022/06/18 06:52:50;;;;;;;8.23;2.80;;;23.60;59.70;;;;;;4431375;32;20125;-68
2022/06/18 06:58:08;;;;;;;6.00;2.70;;;23.60;59.60;;;;;;4431035;32;20106;-68
2022/06/18 07:00:38;;;;;;;10.15;2.63;;;23.60;59.60;;;;;;4430807;32;20082;-68
2022/06/18 07:03:05;;;;;;;8.95;2.90;;;23.60;59.70;;;;;;4431092;32;20082;-69
2022/06/18 07:05:31;;;;;;;9.18;3.15;;;23.70;59.70;;;;;;4431043;32;20141;-68
2022/06/18 07:07:56;;;;;;;7.10;3.08;;;23.70;59.80;;;;;;4431271;32;20067;-68
2022/06/18 07:10:22;;;;;;;8.32;3.08;;;23.70;59.70;;;;;;4431055;32;20492;-68
2022/06/18 07:12:48;;;;;;;7.50;2.95;;;23.80;59.90;;;;;;4430587;32;20097;-68
2022/06/18 07:15:14;;;;;;;7.65;2.63;;;23.80;59.90;;;;;;4430598;32;20157;-68
2022/06/18 07:17:43;;;;;;;5.75;2.35;;;23.80;59.90;;;;;;4430934;32;20393;-68
2022/06/18 07:20:18;;;;;;;5.63;2.05;;;23.80;59.90;;;;;;4430553;32;20071;-68
2022/06/18 07:22:44;;;;;;;5.35;2.10;;;23.90;60.00;;;;;;4430805;32;20439;-68
2022/06/18 07:25:12;;;;;;;6.97;2.20;;;23.90;60.10;;;;;;4431069;32;20082;-68
2022/06/18 07:27:39;;;;;;;5.68;1.95;;;23.90;60.10;;;;;;4430708;32;20089;-68
2022/06/18 07:30:08;;;;;;;6.00;2.42;;;24.00;60.10;;;;;;4430632;32;20421;-67
2022/06/18 07:32:36;;;;;;;7.80;2.25;;;24.00;60.10;;;;;;4430609;32;20081;-68
2022/06/18 07:35:02;;;;;;;6.13;2.03;;;24.00;60.10;;;;;;4430293;32;20149;-68
2022/06/18 07:37:29;;;;;;;4.35;2.03;;;24.00;60.10;;;;;;4430601;32;20082;-68
2022/06/18 07:39:55;;;;;;;3.42;1.60;;;24.00;60.10;;;;;;4416747;32;20097;-73
2022/06/18 07:42:22;;;;;;;5.32;2.00;;;24.00;60.10;;;;;;4416626;32;20110;-68
2022/06/18 07:44:48;;;;;;;4.97;1.90;;;24.00;60.10;;;;;;4430424;32;20070;-68
2022/06/18 07:47:17;;;;;;;4.72;1.63;;;24.00;60.00;;;;;;4430458;32;20074;-68
2022/06/18 07:49:45;;;;;;;4.53;1.70;;;24.00;60.00;;;;;;4430425;32;20168;-68
2022/06/18 07:52:15;;;;;;;5.25;1.73;;;24.00;60.00;;;;;;4430358;32;20151;-68
2022/06/18 07:54:42;;;;;;;3.60;1.70;;;24.00;60.00;;;;;;4430371;32;20070;-68
2022/06/18 07:57:09;;;;;;;3.75;1.92;;;24.00;60.00;;;;;;4416582;32;20078;-68
2022/06/18 07:59:35;;;;;;;4.80;2.20;;;24.00;60.10;;;;;;4430257;32;20136;-68
2022/06/18 08:02:01;;;;;;;3.92;1.80;;;24.00;60.10;;;;;;4430227;32;20224;-68
2022/06/18 08:04:26;;;;;;;4.05;1.73;;;24.00;60.90;;;;;;4429972;32;20594;-68
2022/06/18 08:06:53;;;;;;;4.07;2.00;;;24.00;60.00;;;;;;4416549;32;20075;-68
2022/06/18 08:09:19;;;;;;;5.07;1.75;;;24.00;60.00;;;;;;4429954;32;20074;-68
2022/06/18 08:11:44;;;;;;;3.90;1.63;;;24.00;60.00;;;;;;4430289;32;20153;-77
2022/06/18 08:14:11;;;;;;;3.08;1.70;;;24.00;60.00;;;;;;4430131;32;20074;-69
2022/06/18 08:16:37;;;;;;;3.47;1.40;;;24.00;60.00;;;;;;4429890;32;20082;-68
2022/06/18 08:19:03;;;;;;;4.85;1.38;;;24.00;60.00;;;;;;4429561;32;20381;-69
2022/06/18 08:21:39;;;;;;;11.48;1.50;;;24.10;61.00;;;;;;4429805;32;20418;-68
2022/06/18 08:24:12;;;;;;;4.68;1.70;;;24.20;60.10;;;;;;4429726;32;20086;-67
2022/06/18 08:26:39;;;;;;;3.10;1.40;;;24.20;60.10;;;;;;4416382;32;20098;-67
2022/06/18 08:29:10;;;;;;;5.20;1.55;;;24.20;60.00;;;;;;4429797;32;20403;-67
2022/06/18 08:31:37;;;;;;;4.70;1.67;;;24.20;60.00;;;;;;4429604;32;20078;-67
2022/06/18 08:34:03;;;;;;;5.88;2.10;;;24.20;59.90;;;;;;4429997;32;20178;-68
2022/06/18 08:36:32;;;;;;;4.18;1.40;;;24.30;60.00;;;;;;4416175;32;20106;-67
2022/06/18 08:38:59;;;;;;;4.57;1.60;;;24.30;59.90;;;;;;4429967;32;20168;-67
2022/06/18 08:41:31;;;;;;;3.50;1.33;;;24.40;60.00;;;;;;4429589;32;20168;-67
2022/06/18 08:44:07;;;;;;;3.78;1.42;;;24.40;59.90;;;;;;4429817;32;20238;-67
2022/06/18 08:46:52;;;;;;;3.72;1.10;;;24.40;59.90;;;;;;4430041;32;20093;-67
2022/06/18 08:49:25;;;;;;;3.25;1.30;;;24.40;59.70;;;;;;4429906;32;20078;-67
2022/06/18 08:52:39;;;;;;;2.90;1.17;;;24.40;59.70;;;;;;4429758;32;20168;-67
2022/06/18 08:55:49;;;;;;;2.60;1.38;;;24.40;59.60;;;;;;4374258;32;20087;-68
2022/06/18 08:58:38;;;;;;;2.92;1.40;;;24.50;59.70;;;;;;4395792;32;20528;-67
2022/06/18 09:01:23;;;;;;;4.20;1.33;;;24.50;59.50;;;;;;4430067;32;20059;-67
2022/06/18 09:04:11;;;;;;;7.45;1.70;;;24.50;60.50;;;;;;4429583;32;20224;-67
2022/06/18 09:06:40;;;;;;;2.53;1.20;;;24.50;59.50;;;;;;4429647;32;20389;-67
2022/06/18 09:09:25;;;;;;;5.80;1.55;;;24.50;59.40;;;;;;4429777;32;20070;-68
2022/06/18 09:12:32;;;;;;;5.47;1.58;;;24.60;59.40;;;;;;4430050;32;20253;-67
2022/06/18 09:15:16;;;;;;;4.85;1.67;;;24.60;59.30;;;;;;4429044;32;20106;-68
2022/06/18 09:17:46;;;;;;;;;;;24.60;59.20;;;;;;4430462;32;20583;-67
2022/06/18 09:20:44;;;;;;;4.60;1.05;;;24.60;59.20;;;;;;4429678;32;20069;-68
2022/06/18 09:23:28;;;;;;;5.53;1.17;;;24.60;59.20;;;;;;4429531;32;20516;-68
2022/06/18 09:25:57;;;;;;;3.15;1.25;;;24.60;59.20;;;;;;4430343;32;20086;-67
2022/06/18 09:28:32;;;;;;;6.20;1.20;;;24.60;59.10;;;;;;4429648;32;20075;-67
2022/06/18 09:31:07;;;;;;;4.03;1.13;;;24.70;59.20;;;;;;4429502;32;20473;-68
2022/06/18 09:33:39;;;;;;;4.10;1.20;;;24.70;59.10;;;;;;4429596;32;20074;-67
2022/06/18 09:36:23;;;;;;;4.65;1.40;;;24.70;59.10;;;;;;4429417;32;20078;-71
2022/06/18 09:38:55;;;;;;;7.65;1.15;;;24.70;59.20;;;;;;4429856;32;20161;-67
2022/06/18 09:41:38;;;;;;;3.10;1.17;;;24.70;59.10;;;;;;4429692;32;20169;-66
2022/06/18 09:44:13;;;;;;;3.63;1.00;;;24.70;59.10;;;;;;4429212;32;20378;-68
2022/06/18 09:47:08;;;;;;;4.43;1.30;;;24.70;59.10;;;;;;4429585;32;20176;-67
2022/06/18 09:49:35;;;;;;;4.97;1.30;;;24.70;58.90;;;;;;4402907;32;20189;-67
2022/06/18 09:52:10;;;;;;;4.15;1.30;;;24.70;58.90;;;;;;4429457;32;20094;-67
2022/06/18 09:54:51;;;;;;;5.72;1.10;;;24.70;58.90;;;;;;4429428;32;20192;-68
2022/06/18 09:57:20;;;;;;;4.18;1.30;;;24.70;58.80;;;;;;4429575;32;20488;-67
2022/06/18 10:00:09;;;;;;;5.35;1.00;;;24.70;58.80;;;;;;4429692;32;20169;-67
2022/06/18 10:02:57;;;;;;;8.82;1.20;;;24.80;58.70;;;;;;4429496;32;20492;-67
2022/06/18 10:08:27;;;;;;;3.60;1.02;;;24.80;58.80;;;;;;4432181;32;20094;-67
2022/06/18 10:11:07;;;;;;;5.53;1.08;;;24.80;58.70;;;;;;4431845;32;20177;-66
2022/06/18 10:13:42;;;;;;;4.82;1.05;;;24.80;58.70;;;;;;4432225;32;20133;-67
2022/06/18 10:16:32;;;;;;;3.78;0.95;;;24.80;58.60;;;;;;4418267;32;20168;-68
2022/06/18 10:19:33;;;;;;;5.18;1.30;;;24.80;58.70;;;;;;4432040;32;20176;-67
2022/06/18 10:22:22;;;;;;;6.35;1.10;;;24.80;58.60;;;;;;4369393;32;20833;-67
2022/06/18 10:24:51;;;;;;;2.88;0.90;;;24.80;58.60;;;;;;4428628;32;20094;-68
2022/06/18 10:27:25;;;;;;;3.70;0.82;;;24.90;58.60;;;;;;4431859;32;20185;-67
2022/06/18 10:29:59;;;;;;;3.50;1.10;;;24.80;58.50;;;;;;4431906;32;20075;-67
2022/06/18 10:32:53;;;;;;;3.10;0.88;;;24.80;58.30;;;;;;4431591;32;20480;-67
2022/06/18 10:35:25;;;;;;;4.38;1.05;;;24.80;58.10;;;;;;4431187;32;20164;-67
2022/06/18 10:38:11;;;;;;;6.38;1.20;;;24.80;58.10;;;;;;4431561;32;20095;-67
2022/06/18 10:40:59;;;;;;;6.45;1.38;;;24.80;57.70;;;;;;4431713;32;20098;-67
2022/06/18 10:43:50;;;;;;;4.68;1.20;;;24.80;57.70;;;;;;4431413;32;20071;-67
2022/06/18 10:46:20;;;;;;;6.18;1.40;;;24.80;57.50;;;;;;4432014;32;20098;-67
2022/06/18 10:48:56;;;;;;;3.88;0.90;;;24.80;58.30;;;;;;4431550;32;20094;-67
2022/06/18 10:51:26;;;;;;;2.50;0.90;;;24.80;57.00;;;;;;4431566;32;20094;-67
2022/06/18 10:54:03;;;;;;;5.78;1.35;;;24.80;56.90;;;;;;4431366;32;20484;-68
2022/06/18 10:56:33;;;;;;;4.75;1.13;;;24.80;56.50;;;;;;4431530;32;20504;-67
2022/06/18 10:59:02;;;;;;;5.35;1.38;;;24.80;56.30;;;;;;4431436;32;20094;-67
2022/06/18 11:01:39;;;;;;;5.40;1.10;;;24.70;56.00;;;;;;4431144;32;20192;-67
2022/06/18 11:04:28;;;;;;;3.80;1.20;;;24.70;55.20;;;;;;4431331;32;20180;-67
2022/06/18 11:07:05;;;;;;;3.13;1.02;;;24.70;54.70;;;;;;4431430;32;20176;-67
2022/06/18 11:09:37;;;;;;;5.88;1.23;;;24.70;54.80;;;;;;4431537;32;20146;-67
2022/06/18 11:12:19;;;;;;;4.90;1.23;;;24.70;54.70;;;;;;4431309;32;20102;-68
2022/06/18 11:14:45;;;;;;;5.32;1.10;;;24.70;54.60;;;;;;4431122;32;20212;-67
2022/06/18 11:17:22;;;;;;;5.13;1.10;;;24.70;54.60;;;;;;4430820;32;20578;-67
2022/06/18 11:19:48;;;;;;;5.68;1.40;;;24.70;54.20;;;;;;4430897;32;20110;-67
2022/06/18 11:22:26;;;;;;;7.22;1.30;;;24.70;54.20;;;;;;4431111;32;20129;-68
2022/06/18 11:24:59;;;;;;;6.20;1.48;;;24.70;53.80;;;;;;4431376;32;20090;-67
2022/06/18 11:27:36;;;;;;;4.77;1.40;;;24.70;53.80;;;;;;4431079;32;20100;-67
2022/06/18 11:30:24;;;;;;;5.10;1.20;;;24.70;53.50;;;;;;4431254;32;20133;-68
2022/06/18 11:32:51;;;;;;;8.50;1.42;;;24.70;53.20;;;;;;4416892;32;20601;-67
2022/06/18 11:35:31;;;;;;;5.70;1.33;;;24.70;53.50;;;;;;4430353;32;20114;-67
2022/06/18 11:38:15;;;;;;;5.28;1.30;;;24.70;53.30;;;;;;4431128;32;20133;-68
2022/06/18 11:40:51;;;;;;;4.00;1.20;;;24.70;53.20;;;;;;4431117;32;20192;-68
2022/06/18 11:43:29;;;;;;;7.78;1.55;;;24.70;53.20;;;;;;4430833;32;20090;-67
2022/06/18 11:46:01;;;;;;;7.53;1.50;;;24.70;53.10;;;;;;4430722;32;20101;-69
2022/06/18 11:48:46;;;;;;;4.37;1.17;;;24.70;53.20;;;;;;4430905;32;20063;-67
2022/06/18 11:51:26;;;;;;;3.83;1.48;;;24.70;52.90;;;;;;4430723;32;20102;-67
2022/06/18 11:54:16;;;;;;;9.85;1.65;;;24.70;53.00;;;;;;4430658;32;20176;-67
2022/06/18 11:57:31;;;;;;;6.43;1.45;;;24.70;52.90;;;;;;4430406;32;20098;-67
2022/06/18 12:00:12;;;;;;;8.57;1.52;;;24.70;52.90;;;;;;4416967;32;20149;-67
2022/06/18 12:02:54;;;;;;;7.97;1.67;;;24.70;52.80;;;;;;4430519;32;20231;-67
2022/06/18 12:05:35;;;;;;;6.13;1.40;;;24.70;52.60;;;;;;4430558;32;20082;-67
2022/06/18 12:08:04;;;;;;;5.30;1.40;;;24.70;52.70;;;;;;4430557;32;20212;-67
2022/06/18 12:10:42;;;;;;;6.82;1.58;;;24.70;52.60;;;;;;4430642;32;20101;-66
2022/06/18 12:13:40;;;;;;;7.28;1.70;;;24.70;52.50;;;;;;4430567;32;20090;-67
2022/06/18 12:16:23;;;;;;;6.85;1.67;;;24.70;52.60;;;;;;4416481;32;20066;-67
2022/06/18 12:19:06;;;;;;;6.25;1.35;;;24.70;52.80;;;;;;4430284;32;20093;-67
2022/06/18 12:21:50;;;;;;;8.53;1.80;;;24.70;52.80;;;;;;4430160;32;20106;-67
2022/06/18 12:24:26;;;;;;;6.65;2.20;;;24.70;52.60;;;;;;4429503;32;20311;-67
2022/06/18 12:27:02;;;;;;;4.28;1.20;;;24.70;52.60;;;;;;4429942;32;20138;-67
2022/06/18 12:29:44;;;;;;;10.48;1.90;;;24.70;52.50;;;;;;4429514;32;20176;-67
2022/06/18 12:32:48;;;;;;;8.43;1.63;;;24.70;52.20;;;;;;4429521;32;20211;-67
2022/06/18 12:35:32;;;;;;;7.25;1.60;;;24.70;52.10;;;;;;4429224;32;20172;-67
2022/06/18 12:38:10;;;;;;;6.45;1.40;;;24.80;52.30;;;;;;4430325;32;20098;-67
2022/06/18 12:40:57;;;;;;;5.68;1.30;;;24.80;52.10;;;;;;4430093;32;20094;-68
2022/06/18 12:43:46;;;;;;;7.20;1.40;;;24.80;52.10;;;;;;4429703;32;20118;-67
2022/06/18 12:46:25;;;;;;;5.07;1.30;;;24.80;52.00;;;;;;4429549;32;20105;-67
2022/06/18 12:49:04;;;;;;;7.70;1.55;;;24.80;51.90;;;;;;4429758;32;20067;-67
2022/06/18 12:51:49;;;;;;;6.03;1.40;;;24.80;51.80;;;;;;4429794;32;20083;-67
2022/06/18 12:54:59;;;;;;;7.57;1.98;;;24.80;51.80;;;;;;4429597;32;20452;-67
2022/06/18 12:58:00;;;;;;;6.35;1.77;;;24.90;51.50;;;;;;4429621;32;20094;-67
2022/06/18 13:00:52;;;;;;;6.85;1.90;;;24.90;51.70;;;;;;4416099;32;20449;-66
2022/06/18 13:03:48;;;;;;;4.90;1.60;;;24.90;51.50;;;;;;4429463;32;20094;-67
2022/06/18 13:06:57;;;;;;;5.95;1.98;;;24.90;51.50;;;;;;4429087;32;20083;-67
2022/06/18 13:09:34;;;;;;;6.45;1.88;;;24.90;51.50;;;;;;4429570;32;20547;-66
2022/06/18 13:12:10;;;;;;;6.00;1.95;;;24.90;51.50;;;;;;4429700;32;20148;-66
2022/06/18 13:14:38;;;;;;;4.45;1.50;;;24.90;51.50;;;;;;4429071;32;20221;-67
2022/06/18 13:17:26;;;;;;;7.13;1.80;;;24.90;51.40;;;;;;4429075;32;20075;-67
2022/06/18 13:20:03;;;;;;;8.05;1.70;;;24.90;51.30;;;;;;4429202;32;20078;-66
2022/06/18 13:22:29;;;;;;;5.47;1.42;;;25.00;51.30;;;;;;4415745;32;20503;-67
2022/06/18 13:28:10;;;;;;;12.05;2.33;;;25.00;51.20;;;;;;4429382;32;20094;-67
2022/06/18 13:30:51;;;;;;;9.23;2.40;;;25.00;50.90;;;;;;4429374;32;20157;-68
2022/06/18 13:33:27;;;;;;;10.93;2.15;;;25.00;51.10;;;;;;4429295;32;20098;-69
2022/06/18 13:36:10;;;;;;;8.55;1.60;;;25.00;51.20;;;;;;4429067;32;20181;-68